createdAt,value
2022-11-01T00:01:13.725Z,87.70
2022-11-01T00:03:04.323Z,87.50
2022-11-01T00:04:54.651Z,87.30
2022-11-01T00:06:45.484Z,87.50
2022-11-01T00:08:35.879Z,87.30
2022-11-01T00:10:26.691Z,87.30
2022-11-01T00:12:16.936Z,87.30
2022-11-01T00:14:08.210Z,87.20
2022-11-01T00:15:59.262Z,87.10
2022-11-01T00:17:50.862Z,86.80
2022-11-01T00:19:41.505Z,86.70
2022-11-01T00:21:31.843Z,86.70
2022-11-01T00:23:22.344Z,86.60
2022-11-01T00:25:13.087Z,86.70
2022-11-01T00:27:03.767Z,86.40
2022-11-01T00:28:54.765Z,86.50
2022-11-01T00:30:45.835Z,86.50
2022-11-01T00:32:36.531Z,86.50
2022-11-01T00:34:28.226Z,86.70
2022-11-01T00:36:19.155Z,86.30
2022-11-01T00:38:09.590Z,86.00
2022-11-01T00:40:00.020Z,86.00
2022-11-01T00:41:50.552Z,86.00
2022-11-01T00:43:40.849Z,85.80
2022-11-01T00:45:31.755Z,86.00
2022-11-01T00:47:22.496Z,86.00
2022-11-01T00:49:13.085Z,86.00
2022-11-01T00:51:05.141Z,86.00
2022-11-01T00:52:55.526Z,86.00
2022-11-01T00:54:46.054Z,85.90
2022-11-01T00:56:36.745Z,86.00
2022-11-01T00:58:27.248Z,86.10
2022-11-01T01:00:18.545Z,85.90
2022-11-01T01:02:09.184Z,85.90
2022-11-01T01:03:59.652Z,85.90
2022-11-01T01:05:51.287Z,85.80
2022-11-01T01:07:43.577Z,85.60
2022-11-01T01:09:34.182Z,85.50
2022-11-01T01:11:24.711Z,85.60
2022-11-01T01:13:15.325Z,85.40
2022-11-01T01:15:07.935Z,85.20
2022-11-01T01:16:58.202Z,85.30
2022-11-01T01:18:48.641Z,85.20
2022-11-01T01:20:39.214Z,85.30
2022-11-01T01:22:29.937Z,85.30
2022-11-01T01:24:21.828Z,85.30
2022-11-01T01:26:13.330Z,85.10
2022-11-01T01:28:04.194Z,84.90
2022-11-01T01:29:55.337Z,84.90
2022-11-01T01:31:45.647Z,85.00
2022-11-01T01:33:36.332Z,85.00
2022-11-01T01:35:26.860Z,84.90
2022-11-01T01:37:17.699Z,84.90
2022-11-01T01:39:07.811Z,84.90
2022-11-01T01:40:59.629Z,84.80
2022-11-01T01:42:50.200Z,84.80
2022-11-01T01:45:19.634Z,84.80
2022-11-01T01:47:11.318Z,84.70
2022-11-01T01:49:01.504Z,85.00
2022-11-01T01:50:54.422Z,85.00
2022-11-01T01:52:50.382Z,84.60
2022-11-01T01:54:41.099Z,84.70
2022-11-01T01:56:34.928Z,84.30
2022-11-01T01:58:29.284Z,83.40
2022-11-01T02:00:19.893Z,83.60
2022-11-01T02:02:10.654Z,83.50
2022-11-01T02:04:01.515Z,83.40
2022-11-01T02:05:55.692Z,83.00
2022-11-01T02:07:46.681Z,82.70
2022-11-01T02:09:37.795Z,82.30
2022-11-01T02:11:28.195Z,82.70
2022-11-01T02:13:19.920Z,82.30
2022-11-01T02:15:11.312Z,81.90
2022-11-01T02:17:08.856Z,81.80
2022-11-01T02:19:27.552Z,82.20
2022-11-01T02:21:41.530Z,80.10
2022-11-01T02:23:54.141Z,79.80
2022-11-01T02:25:57.871Z,80.20
2022-11-01T02:27:59.942Z,80.10
2022-11-01T02:30:05.159Z,80.00
2022-11-01T02:32:06.494Z,79.40
2022-11-01T02:33:58.684Z,78.40
2022-11-01T02:35:52.407Z,78.60
2022-11-01T02:37:50.117Z,77.70
2022-11-01T02:39:44.487Z,77.70
2022-11-01T02:41:39.383Z,77.60
2022-11-01T02:43:34.164Z,77.80
2022-11-01T02:45:29.568Z,77.70
2022-11-01T02:47:21.352Z,77.30
2022-11-01T02:49:13.954Z,77.20
2022-11-01T02:51:04.398Z,76.00
2022-11-01T02:52:55.396Z,75.90
2022-11-01T02:54:49.617Z,76.10
2022-11-01T02:56:40.602Z,75.60
2022-11-01T02:58:31.175Z,75.20
2022-11-01T03:00:24.683Z,74.70
2022-11-01T03:02:22.386Z,75.10
2022-11-01T03:04:12.859Z,74.90
2022-11-01T03:06:10.504Z,74.70
2022-11-01T03:08:04.782Z,74.10
2022-11-01T03:09:55.469Z,74.30
2022-11-01T03:11:53.404Z,74.50
2022-11-01T03:13:53.142Z,73.90
2022-11-01T03:15:52.615Z,73.90
2022-11-01T03:17:49.566Z,74.00
2022-11-01T03:19:44.718Z,74.40
2022-11-01T03:21:39.523Z,74.50
2022-11-01T03:23:34.464Z,75.30
2022-11-01T03:25:28.931Z,74.90
2022-11-01T03:27:25.783Z,74.40
2022-11-01T03:29:16.645Z,74.60
2022-11-01T03:31:09.750Z,73.70
2022-11-01T03:33:02.260Z,73.20
2022-11-01T03:34:53.181Z,73.40
2022-11-01T03:36:47.378Z,73.70
2022-11-01T03:38:40.093Z,74.10
2022-11-01T03:40:32.305Z,73.40
2022-11-01T03:42:24.118Z,72.80
2022-11-01T03:44:14.868Z,72.50
2022-11-01T03:46:05.664Z,72.10
2022-11-01T03:47:57.453Z,71.80
2022-11-01T03:50:13.393Z,71.70
2022-11-01T03:52:03.925Z,72.10
2022-11-01T03:53:54.888Z,71.70
2022-11-01T03:55:45.703Z,71.20
2022-11-01T03:57:36.375Z,70.80
2022-11-01T03:59:26.952Z,71.00
2022-11-01T04:01:18.049Z,71.10
2022-11-01T04:03:09.679Z,71.40
2022-11-01T04:05:01.659Z,71.40
2022-11-01T04:06:52.524Z,71.10
2022-11-01T04:08:42.959Z,70.80
2022-11-01T04:10:33.659Z,71.30
2022-11-01T04:12:24.003Z,72.10
2022-11-01T04:14:14.501Z,71.80
2022-11-01T04:16:05.057Z,71.30
2022-11-01T04:18:06.142Z,70.90
2022-11-01T04:19:57.033Z,71.20
2022-11-01T04:21:49.277Z,71.60
2022-11-01T04:23:40.075Z,72.40
2022-11-01T04:25:31.141Z,72.60
2022-11-01T04:27:21.511Z,71.70
2022-11-01T04:29:12.507Z,71.10
2022-11-01T04:31:03.795Z,70.10
2022-11-01T04:32:54.589Z,69.80
2022-11-01T04:34:45.412Z,70.20
2022-11-01T04:36:37.517Z,69.50
2022-11-01T04:38:29.224Z,68.70
2022-11-01T04:40:19.819Z,68.70
2022-11-01T04:42:10.378Z,68.80
2022-11-01T04:44:00.973Z,69.30
2022-11-01T04:45:54.383Z,69.70
2022-11-01T04:47:44.992Z,69.30
2022-11-01T04:49:35.722Z,69.40
2022-11-01T04:51:26.357Z,69.40
2022-11-01T04:53:17.155Z,69.90
2022-11-01T04:55:09.215Z,69.90
2022-11-01T04:56:59.630Z,70.00
2022-11-01T04:58:50.050Z,70.30
2022-11-01T05:00:40.379Z,70.00
2022-11-01T05:02:32.774Z,69.70
2022-11-01T05:04:23.483Z,69.50
2022-11-01T05:06:13.962Z,70.00
2022-11-01T05:08:06.494Z,70.80
2022-11-01T05:09:56.952Z,70.20
2022-11-01T05:11:48.979Z,69.40
2022-11-01T05:13:39.535Z,69.80
2022-11-01T05:15:30.178Z,69.90
2022-11-01T05:17:20.932Z,69.90
2022-11-01T05:19:11.166Z,69.50
2022-11-01T05:21:02.146Z,70.00
2022-11-01T05:22:52.664Z,69.50
2022-11-01T05:24:46.175Z,68.70
2022-11-01T05:26:36.684Z,69.30
2022-11-01T05:28:28.752Z,68.40
2022-11-01T05:30:19.221Z,68.70
2022-11-01T05:32:09.525Z,69.00
2022-11-01T05:34:00.166Z,68.70
2022-11-01T05:35:50.416Z,67.90
2022-11-01T05:37:40.801Z,67.80
2022-11-01T05:39:31.165Z,68.50
2022-11-01T05:41:21.594Z,68.80
2022-11-01T05:43:12.269Z,67.50
2022-11-01T05:45:04.918Z,67.50
2022-11-01T05:46:55.272Z,67.80
2022-11-01T05:48:45.948Z,66.90
2022-11-01T05:50:36.577Z,67.50
2022-11-01T05:52:26.859Z,67.30
2022-11-01T05:54:17.557Z,67.30
2022-11-01T05:56:07.932Z,66.80
2022-11-01T05:57:58.621Z,67.30
2022-11-01T05:59:49.046Z,67.10
2022-11-01T06:01:41.120Z,67.00
2022-11-01T06:03:32.498Z,66.50
2022-11-01T06:05:22.777Z,66.30
2022-11-01T06:07:13.512Z,66.30
2022-11-01T06:09:04.106Z,67.00
2022-11-01T06:11:01.155Z,66.50
2022-11-01T06:12:52.216Z,66.40
2022-11-01T06:14:42.685Z,66.10
2022-11-01T06:16:33.204Z,66.20
2022-11-01T06:18:25.090Z,66.40
2022-11-01T06:20:15.560Z,66.30
2022-11-01T06:22:06.084Z,66.10
2022-11-01T06:23:56.413Z,66.60
2022-11-01T06:25:46.678Z,66.40
2022-11-01T06:27:36.990Z,66.30
2022-11-01T06:29:27.410Z,66.30
2022-11-01T06:31:17.918Z,66.70
2022-11-01T06:33:08.143Z,66.40
2022-11-01T06:35:00.138Z,66.50
2022-11-01T06:36:50.584Z,66.60
2022-11-01T06:38:41.174Z,66.50
2022-11-01T06:40:31.739Z,66.50
2022-11-01T06:42:22.489Z,66.70
2022-11-01T06:44:13.119Z,66.70
2022-11-01T06:46:03.472Z,67.40
2022-11-01T06:47:54.059Z,67.50
2022-11-01T06:49:44.842Z,67.40
2022-11-01T06:51:36.504Z,67.00
2022-11-01T06:53:26.787Z,67.20
2022-11-01T06:55:17.438Z,67.60
2022-11-01T06:57:08.048Z,67.60
2022-11-01T06:58:58.402Z,67.90
2022-11-01T07:00:48.866Z,67.80
2022-11-01T07:02:40.533Z,68.10
2022-11-01T07:04:31.380Z,68.00
2022-11-01T07:06:22.072Z,67.80
2022-11-01T07:08:13.706Z,68.00
2022-11-01T07:10:04.761Z,68.00
2022-11-01T07:11:55.488Z,67.70
2022-11-01T07:13:45.802Z,67.60
2022-11-01T07:15:36.729Z,68.20
2022-11-01T07:17:27.582Z,68.50
2022-11-01T07:19:18.183Z,68.50
2022-11-01T07:21:09.024Z,68.30
2022-11-01T07:23:00.019Z,68.20
2022-11-01T07:24:52.140Z,68.60
2022-11-01T07:26:42.570Z,69.10
2022-11-01T07:28:32.792Z,68.80
2022-11-01T07:30:24.442Z,69.10
2022-11-01T07:32:14.826Z,69.00
2022-11-01T07:34:05.462Z,69.30
2022-11-01T07:35:56.548Z,69.50
2022-11-01T07:37:46.969Z,70.20
2022-11-01T07:39:37.277Z,70.40
2022-11-01T07:41:30.348Z,70.50
2022-11-01T07:43:20.857Z,70.30
2022-11-01T07:45:13.245Z,70.10
2022-11-01T07:47:03.891Z,70.30
2022-11-01T07:48:54.996Z,70.40
2022-11-01T07:50:45.857Z,70.60
2022-11-01T07:52:36.144Z,70.30
2022-11-01T07:54:26.802Z,70.40
2022-11-01T07:56:17.258Z,70.40
2022-11-01T07:58:09.541Z,71.00
2022-11-01T07:59:59.935Z,70.50
2022-11-01T08:01:50.456Z,70.60
2022-11-01T08:03:41.779Z,70.50
2022-11-01T08:05:33.722Z,70.60
2022-11-01T08:07:24.527Z,71.40
2022-11-01T08:09:14.869Z,71.40
2022-11-01T08:11:05.433Z,70.90
2022-11-01T08:13:01.478Z,70.80
2022-11-01T08:14:53.235Z,71.10
2022-11-01T08:16:43.767Z,70.70
2022-11-01T08:18:34.101Z,70.60
2022-11-01T08:20:24.450Z,70.50
2022-11-01T08:22:15.032Z,70.50
2022-11-01T08:24:06.041Z,70.80
2022-11-01T08:25:57.612Z,71.50
2022-11-01T08:27:47.964Z,70.70
2022-11-01T08:29:38.404Z,70.90
2022-11-01T08:31:30.036Z,71.20
2022-11-01T08:33:20.739Z,70.60
2022-11-01T08:35:11.547Z,71.30
2022-11-01T08:37:01.939Z,70.70
2022-11-01T08:38:52.217Z,70.90
2022-11-01T08:40:42.502Z,70.60
2022-11-01T08:42:32.859Z,71.20
2022-11-01T08:44:23.871Z,71.20
2022-11-01T08:46:14.261Z,71.00
2022-11-01T08:48:06.541Z,71.70
2022-11-01T08:49:57.367Z,71.70
2022-11-01T08:51:47.602Z,71.20
2022-11-01T08:53:38.383Z,71.40
2022-11-01T08:55:30.684Z,71.30
2022-11-01T08:57:21.937Z,71.40
2022-11-01T08:59:12.416Z,71.90
2022-11-01T09:01:02.995Z,71.10
2022-11-01T09:02:53.708Z,70.90
2022-11-01T09:04:45.386Z,71.30
2022-11-01T09:06:36.495Z,71.30
2022-11-01T09:08:27.333Z,71.50
2022-11-01T09:10:17.947Z,71.70
2022-11-01T09:12:12.315Z,71.40
2022-11-01T09:14:04.678Z,71.20
2022-11-01T09:15:58.433Z,71.10
2022-11-01T09:17:52.354Z,71.20
2022-11-01T09:19:42.863Z,71.00
2022-11-01T09:21:34.453Z,71.30
2022-11-01T09:23:24.622Z,71.40
2022-11-01T09:25:15.060Z,71.30
2022-11-01T09:27:06.926Z,71.20
2022-11-01T09:28:57.615Z,71.10
2022-11-01T09:30:49.792Z,70.60
2022-11-01T09:32:51.436Z,70.80
2022-11-01T09:34:41.815Z,70.90
2022-11-01T09:36:32.114Z,70.20
2022-11-01T09:38:24.339Z,70.60
2022-11-01T09:40:14.983Z,70.70
2022-11-01T09:42:09.873Z,70.50
2022-11-01T09:44:02.338Z,71.30
2022-11-01T09:45:54.028Z,71.00
2022-11-01T09:47:45.508Z,70.60
2022-11-01T09:49:39.051Z,70.90
2022-11-01T09:51:29.386Z,71.10
2022-11-01T09:53:24.102Z,71.20
2022-11-01T09:55:16.137Z,71.40
2022-11-01T09:57:12.887Z,70.50
2022-11-01T09:59:12.054Z,70.40
2022-11-01T10:01:15.608Z,71.00
2022-11-01T10:03:20.164Z,70.40
2022-11-01T10:05:22.574Z,70.20
2022-11-01T10:07:18.957Z,70.00
2022-11-01T10:09:15.473Z,69.80
2022-11-01T10:11:20.294Z,70.80
2022-11-01T10:13:22.546Z,71.30
2022-11-01T10:15:24.812Z,71.50
2022-11-01T10:17:16.571Z,71.70
2022-11-01T10:19:11.815Z,70.30
2022-11-01T10:21:05.640Z,70.40
2022-11-01T10:22:57.647Z,70.00
2022-11-01T10:24:52.925Z,69.90
2022-11-01T10:26:43.164Z,69.80
2022-11-01T10:28:41.467Z,69.70
2022-11-01T10:30:36.774Z,69.90
2022-11-01T10:32:33.089Z,69.60
2022-11-01T10:34:26.005Z,69.70
2022-11-01T10:36:17.370Z,69.80
2022-11-01T10:38:24.972Z,69.20
2022-11-01T10:40:28.133Z,69.00
2022-11-01T10:42:18.689Z,69.10
2022-11-01T10:44:13.743Z,69.40
2022-11-01T10:46:07.541Z,69.50
2022-11-01T10:47:58.326Z,68.70
2022-11-01T10:50:07.637Z,68.90
2022-11-01T10:52:02.198Z,68.70
2022-11-01T10:53:55.391Z,68.60
2022-11-01T10:55:49.438Z,67.90
2022-11-01T10:57:42.848Z,68.20
2022-11-01T10:59:36.165Z,68.40
2022-11-01T11:01:28.841Z,67.90
2022-11-01T11:03:23.131Z,68.30
2022-11-01T11:05:13.604Z,68.30
2022-11-01T11:07:12.276Z,69.10
2022-11-01T11:09:04.882Z,68.10
2022-11-01T11:11:02.716Z,67.80
2022-11-01T11:12:56.510Z,67.90
2022-11-01T11:14:48.842Z,67.80
2022-11-01T11:16:42.863Z,68.00
2022-11-01T11:18:35.531Z,67.10
2022-11-01T11:20:27.445Z,67.10
2022-11-01T11:22:20.756Z,67.80
2022-11-01T11:24:16.213Z,67.70
2022-11-01T11:26:09.716Z,67.90
2022-11-01T11:28:00.735Z,68.00
2022-11-01T11:29:53.132Z,67.50
2022-11-01T11:31:43.499Z,67.50
2022-11-01T11:33:34.123Z,66.10
2022-11-01T11:35:26.553Z,66.40
2022-11-01T11:37:19.995Z,66.60
2022-11-01T11:39:23.951Z,67.00
2022-11-01T11:41:28.003Z,66.50
2022-11-01T11:43:23.270Z,66.70
2022-11-01T11:45:20.626Z,65.70
2022-11-01T11:47:22.908Z,65.80
2022-11-01T11:49:26.255Z,66.50
2022-11-01T11:51:16.999Z,65.90
2022-11-01T11:53:15.744Z,65.90
2022-11-01T11:55:09.653Z,66.50
2022-11-01T11:57:12.988Z,65.40
2022-11-01T11:59:08.511Z,65.10
2022-11-01T12:01:02.076Z,64.40
2022-11-01T12:02:52.645Z,64.90
2022-11-01T12:04:47.031Z,64.30
2022-11-01T12:06:41.015Z,64.50
2022-11-01T12:08:36.810Z,64.30
2022-11-01T12:10:30.008Z,64.20
2022-11-01T12:12:24.213Z,64.00
2022-11-01T12:14:19.975Z,63.60
2022-11-01T12:16:22.729Z,63.80
2022-11-01T12:18:16.254Z,63.30
2022-11-01T12:20:14.954Z,63.10
2022-11-01T12:22:05.690Z,63.50
2022-11-01T12:24:00.868Z,63.40
2022-11-01T12:25:51.445Z,62.90
2022-11-01T12:27:50.247Z,63.00
2022-11-01T12:29:43.696Z,62.90
2022-11-01T12:31:35.074Z,62.60
2022-11-01T12:33:28.881Z,61.70
2022-11-01T12:35:27.747Z,63.30
2022-11-01T12:37:20.383Z,61.30
2022-11-01T12:39:23.010Z,62.10
2022-11-01T12:41:20.881Z,61.80
2022-11-01T12:43:18.233Z,60.70
2022-11-01T12:45:15.283Z,60.20
2022-11-01T12:47:10.427Z,61.10
2022-11-01T12:49:04.860Z,61.00
2022-11-01T12:50:58.979Z,62.60
2022-11-01T12:52:51.755Z,61.90
2022-11-01T12:54:45.979Z,61.30
2022-11-01T12:56:36.567Z,61.60
2022-11-01T12:58:33.449Z,61.90
2022-11-01T13:00:40.979Z,61.60
2022-11-01T13:02:40.786Z,61.60
2022-11-01T13:04:34.985Z,60.90
2022-11-01T13:06:47.842Z,61.10
2022-11-01T13:08:42.792Z,60.60
2022-11-01T13:10:35.068Z,61.20
2022-11-01T13:12:34.852Z,60.60
2022-11-01T13:14:42.825Z,60.00
2022-11-01T13:16:38.006Z,59.90
2022-11-01T13:18:37.967Z,59.80
2022-11-01T13:20:37.969Z,59.70
2022-11-01T13:22:34.102Z,59.50
2022-11-01T13:24:30.847Z,59.50
2022-11-01T13:26:23.492Z,59.60
2022-11-01T13:28:23.971Z,59.30
2022-11-01T13:30:18.789Z,59.40
2022-11-01T13:32:16.438Z,59.90
2022-11-01T13:34:18.044Z,58.90
2022-11-01T13:36:13.247Z,60.20
2022-11-01T13:38:10.494Z,60.40
2022-11-01T13:40:15.575Z,60.20
2022-11-01T13:42:11.259Z,60.90
2022-11-01T13:44:05.948Z,59.90
2022-11-01T13:46:33.537Z,59.10
2022-11-01T13:48:30.283Z,59.50
2022-11-01T13:50:43.595Z,59.00
2022-11-01T13:52:36.659Z,59.60
2022-11-01T13:54:31.959Z,59.10
2022-11-01T13:56:28.355Z,59.20
2022-11-01T13:58:19.615Z,59.20
2022-11-01T14:00:39.469Z,59.10
2022-11-01T14:02:57.687Z,59.20
2022-11-01T14:04:57.140Z,59.70
2022-11-01T14:06:51.046Z,59.90
2022-11-01T14:08:42.415Z,60.10
2022-11-01T14:10:48.886Z,60.90
2022-11-01T14:12:44.824Z,60.90
2022-11-01T14:14:51.973Z,61.60
2022-11-01T14:16:42.626Z,62.10
2022-11-01T14:19:13.703Z,62.40
2022-11-01T14:21:22.233Z,61.80
2022-11-01T14:23:52.232Z,62.50
2022-11-01T14:25:42.682Z,62.30
2022-11-01T14:27:34.434Z,62.60
2022-11-01T14:29:24.766Z,62.80
2022-11-01T14:31:17.767Z,63.50
2022-11-01T14:33:13.825Z,63.20
2022-11-01T14:35:13.693Z,63.10
2022-11-01T14:37:19.506Z,63.20
2022-11-01T14:39:16.479Z,63.30
2022-11-01T14:41:07.585Z,63.50
2022-11-01T14:43:02.971Z,63.30
2022-11-01T14:44:55.110Z,63.50
2022-11-01T14:46:49.420Z,62.50
2022-11-01T14:48:43.031Z,62.70
2022-11-01T14:50:41.906Z,63.00
2022-11-01T14:52:36.706Z,63.00
2022-11-01T14:54:33.140Z,62.80
2022-11-01T14:56:35.830Z,62.80
2022-11-01T14:58:30.600Z,62.70
2022-11-01T15:00:26.328Z,63.50
2022-11-01T15:02:17.549Z,63.70
2022-11-01T15:04:19.742Z,64.00
2022-11-01T15:06:22.730Z,63.90
2022-11-01T15:08:23.997Z,64.00
2022-11-01T15:10:15.127Z,63.90
2022-11-01T15:12:07.134Z,63.80
2022-11-01T15:13:59.374Z,63.90
2022-11-01T15:16:01.403Z,63.70
2022-11-01T15:17:54.068Z,64.10
2022-11-01T15:19:44.568Z,64.70
2022-11-01T15:21:46.675Z,64.60
2022-11-01T15:23:38.185Z,64.70
2022-11-01T15:25:28.751Z,65.10
2022-11-01T15:27:21.192Z,64.80
2022-11-01T15:29:15.039Z,64.50
2022-11-01T15:31:06.202Z,64.60
2022-11-01T15:33:14.983Z,64.40
2022-11-01T15:35:20.622Z,64.40
2022-11-01T15:37:19.958Z,64.70
2022-11-01T15:39:17.462Z,64.90
2022-11-01T15:41:22.008Z,65.40
2022-11-01T15:43:17.387Z,64.90
2022-11-01T15:45:18.579Z,65.00
2022-11-01T15:47:15.747Z,65.20
2022-11-01T15:49:09.406Z,65.20
2022-11-01T15:51:01.544Z,64.80
2022-11-01T15:52:53.724Z,64.90
2022-11-01T15:54:46.984Z,65.50
2022-11-01T15:56:40.109Z,65.40
2022-11-01T15:58:33.200Z,65.70
2022-11-01T16:00:25.377Z,65.50
2022-11-01T16:02:20.924Z,65.20
2022-11-01T16:04:14.557Z,65.60
2022-11-01T16:06:11.314Z,65.90
2022-11-01T16:08:06.061Z,65.40
2022-11-01T16:09:59.420Z,64.80
2022-11-01T16:11:50.238Z,65.40
2022-11-01T16:13:40.514Z,65.80
2022-11-01T16:15:32.085Z,65.80
2022-11-01T16:17:31.833Z,65.90
2022-11-01T16:19:27.631Z,65.30
2022-11-01T16:21:26.509Z,65.90
2022-11-01T16:23:26.886Z,65.90
2022-11-01T16:25:20.127Z,65.70
2022-11-01T16:27:26.428Z,65.50
2022-11-01T16:29:17.097Z,65.30
2022-11-01T16:31:19.650Z,65.50
2022-11-01T16:33:17.350Z,65.80
2022-11-01T16:35:30.346Z,65.60
2022-11-01T16:37:22.353Z,65.40
2022-11-01T16:39:28.997Z,65.90
2022-11-01T16:41:21.780Z,66.10
2022-11-01T16:43:12.087Z,65.70
2022-11-01T16:45:02.318Z,66.00
2022-11-01T16:46:53.538Z,66.00
2022-11-01T16:48:55.035Z,66.20
2022-11-01T16:50:45.577Z,66.00
2022-11-01T16:52:35.827Z,66.00
2022-11-01T16:54:27.758Z,65.80
2022-11-01T16:56:36.001Z,66.10
2022-11-01T16:58:27.729Z,65.90
2022-11-01T17:00:18.406Z,65.90
2022-11-01T17:02:15.656Z,65.90
2022-11-01T17:04:09.322Z,65.70
2022-11-01T17:06:00.000Z,66.10
2022-11-01T17:07:50.908Z,67.50
2022-11-01T17:09:42.840Z,68.40
2022-11-01T17:11:33.426Z,67.90
2022-11-01T17:13:23.998Z,66.90
2022-11-01T17:15:14.438Z,66.80
2022-11-01T17:17:06.614Z,67.20
2022-11-01T17:18:57.887Z,67.10
2022-11-01T17:20:48.826Z,66.70
2022-11-01T17:22:39.548Z,66.60
2022-11-01T17:24:30.336Z,66.30
2022-11-01T17:26:22.008Z,65.90
2022-11-01T17:28:12.651Z,66.10
2022-11-01T17:30:03.353Z,66.30
2022-11-01T17:31:54.092Z,66.10
2022-11-01T17:33:44.547Z,65.80
2022-11-01T17:35:35.489Z,66.30
2022-11-01T17:37:26.361Z,66.10
2022-11-01T17:39:16.955Z,66.30
2022-11-01T17:41:08.789Z,66.70
2022-11-01T17:43:01.295Z,66.40
2022-11-01T17:44:51.887Z,66.60
2022-11-01T17:46:42.423Z,66.30
2022-11-01T17:48:32.608Z,66.50
2022-11-01T17:50:22.963Z,66.70
2022-11-01T17:52:13.580Z,66.40
2022-11-01T17:54:03.889Z,66.30
2022-11-01T17:55:56.373Z,66.40
2022-11-01T17:57:46.813Z,66.70
2022-11-01T17:59:38.490Z,66.50
2022-11-01T18:01:29.432Z,66.80
2022-11-01T18:03:20.409Z,66.60
2022-11-01T18:05:10.747Z,66.70
2022-11-01T18:07:01.663Z,67.00
2022-11-01T18:08:52.848Z,67.20
2022-11-01T18:10:48.118Z,68.80
2022-11-01T18:12:47.957Z,69.40
2022-11-01T18:14:49.712Z,68.90
2022-11-01T18:16:46.161Z,69.30
2022-11-01T18:18:48.112Z,68.70
2022-11-01T18:20:43.382Z,69.20
2022-11-01T18:22:39.123Z,69.80
2022-11-01T18:24:37.068Z,69.90
2022-11-01T18:26:28.057Z,70.00
2022-11-01T18:28:19.883Z,71.10
2022-11-01T18:30:14.726Z,71.20
2022-11-01T18:32:11.992Z,71.90
2022-11-01T18:34:06.918Z,72.30
2022-11-01T18:36:01.862Z,72.40
2022-11-01T18:38:05.781Z,72.20
2022-11-01T18:40:01.296Z,72.30
2022-11-01T18:41:51.775Z,73.00
2022-11-01T18:43:42.559Z,72.70
2022-11-01T18:45:51.200Z,73.10
2022-11-01T18:47:46.822Z,73.20
2022-11-01T18:49:37.206Z,73.10
2022-11-01T18:51:28.521Z,73.50
2022-11-01T18:53:19.771Z,73.40
2022-11-01T18:55:12.800Z,73.60
2022-11-01T18:57:10.216Z,73.50
2022-11-01T18:59:01.395Z,73.60
2022-11-01T19:01:00.201Z,73.80
2022-11-01T19:02:50.549Z,74.10
2022-11-01T19:04:42.344Z,74.40
2022-11-01T19:06:33.418Z,74.80
2022-11-01T19:08:25.699Z,74.70
2022-11-01T19:10:18.617Z,75.20
2022-11-01T19:12:15.208Z,75.60
2022-11-01T19:14:13.823Z,76.00
2022-11-01T19:16:08.635Z,76.90
2022-11-01T19:18:01.253Z,77.70
2022-11-01T19:19:52.891Z,78.40
2022-11-01T19:21:43.679Z,79.10
2022-11-01T19:23:38.368Z,80.70
2022-11-01T19:25:31.130Z,81.90
2022-11-01T19:27:22.723Z,83.00
2022-11-01T19:29:15.921Z,83.60
2022-11-01T19:31:13.078Z,84.50
2022-11-01T19:33:13.812Z,83.30
2022-11-01T19:35:04.779Z,85.00
2022-11-01T19:36:56.129Z,85.80
2022-11-01T19:38:47.658Z,85.80
2022-11-01T19:40:38.572Z,86.20
2022-11-01T19:42:30.370Z,86.40
2022-11-01T19:44:22.969Z,87.10
2022-11-01T19:46:16.682Z,86.70
2022-11-01T19:48:10.947Z,87.10
2022-11-01T19:50:01.784Z,86.90
2022-11-01T19:51:59.986Z,87.90
2022-11-01T19:53:53.270Z,87.30
2022-11-01T19:55:47.914Z,88.60
2022-11-01T19:57:40.917Z,88.00
2022-11-01T19:59:42.545Z,87.70
2022-11-01T20:01:37.681Z,87.70
2022-11-01T20:03:33.553Z,87.20
2022-11-01T20:05:27.252Z,86.30
2022-11-01T20:07:20.724Z,85.30
2022-11-01T20:09:13.355Z,85.60
2022-11-01T20:11:03.994Z,85.70
2022-11-01T20:12:54.723Z,85.20
2022-11-01T20:14:45.251Z,85.50
2022-11-01T20:16:38.394Z,84.60
2022-11-01T20:18:29.075Z,83.60
2022-11-01T20:20:19.446Z,83.50
2022-11-01T20:22:09.859Z,83.10
2022-11-01T20:24:00.334Z,82.60
2022-11-01T20:25:50.707Z,81.80
2022-11-01T20:27:41.304Z,81.90
2022-11-01T20:29:31.600Z,82.20
2022-11-01T20:31:22.163Z,81.20
2022-11-01T20:33:14.150Z,80.70
2022-11-01T20:35:06.262Z,80.30
2022-11-01T20:37:22.768Z,80.10
2022-11-01T20:39:09.225Z,80.30
2022-11-01T20:41:02.147Z,80.00
2022-11-01T20:42:52.824Z,79.50
2022-11-01T20:44:43.501Z,80.10
2022-11-01T20:46:34.175Z,80.10
2022-11-01T20:48:25.949Z,80.30
2022-11-01T20:50:17.011Z,79.90
2022-11-01T20:52:33.701Z,79.20
2022-11-01T20:54:20.273Z,79.40
2022-11-01T20:56:10.847Z,79.50
2022-11-01T20:58:01.523Z,79.50
2022-11-01T20:59:52.206Z,79.10
2022-11-01T21:01:42.700Z,78.20
2022-11-01T21:03:34.699Z,78.80
2022-11-01T21:05:26.877Z,79.20
2022-11-01T21:07:17.243Z,79.40
2022-11-01T21:09:24.806Z,79.30
2022-11-01T21:11:21.026Z,79.30
2022-11-01T21:13:21.951Z,78.80
2022-11-01T21:15:32.529Z,78.40
2022-11-01T21:17:23.050Z,77.40
2022-11-01T21:19:19.535Z,77.20
2022-11-01T21:21:39.192Z,76.90
2022-11-01T21:23:33.186Z,76.20
2022-11-01T21:25:23.466Z,76.40
2022-11-01T21:27:23.808Z,76.90
2022-11-01T21:29:22.792Z,76.90
2022-11-01T21:31:25.203Z,77.20
2022-11-01T21:33:28.227Z,78.10
2022-11-01T21:35:38.409Z,78.70
2022-11-01T21:37:29.428Z,79.70
2022-11-01T21:39:21.678Z,80.10
2022-11-01T21:41:28.478Z,80.90
2022-11-01T21:43:24.726Z,80.80
2022-11-01T21:45:27.254Z,80.90
2022-11-01T21:47:19.648Z,81.70
2022-11-01T21:49:22.956Z,81.50
2022-11-01T21:51:14.977Z,81.60
2022-11-01T21:53:05.867Z,82.00
2022-11-01T21:54:56.486Z,82.00
2022-11-01T21:56:47.100Z,82.20
2022-11-01T21:58:37.483Z,82.40
2022-11-01T22:00:27.971Z,82.70
2022-11-01T22:02:18.663Z,82.90
2022-11-01T22:04:09.215Z,84.30
2022-11-01T22:05:59.813Z,84.90
2022-11-01T22:07:51.864Z,86.20
2022-11-01T22:09:42.570Z,86.70
2022-11-01T22:11:32.904Z,86.80
2022-11-01T22:13:23.617Z,87.20
2022-11-01T22:15:13.890Z,87.80
2022-11-01T22:17:04.225Z,87.50
2022-11-01T22:18:54.818Z,87.70
2022-11-01T22:20:45.237Z,88.00
2022-11-01T22:22:35.559Z,88.50
2022-11-01T22:24:27.607Z,88.80
2022-11-01T22:26:18.355Z,88.80
2022-11-01T22:28:10.089Z,89.30
2022-11-01T22:30:00.736Z,89.20
2022-11-01T22:31:50.964Z,89.40
2022-11-01T22:33:41.454Z,88.50
2022-11-01T22:35:31.882Z,88.30
2022-11-01T22:37:22.116Z,88.60
2022-11-01T22:39:14.227Z,88.50
2022-11-01T22:41:11.178Z,88.60
2022-11-01T22:43:02.069Z,88.00
2022-11-01T22:44:53.316Z,87.80
2022-11-01T22:46:46.002Z,87.90
2022-11-01T22:48:36.579Z,88.50
2022-11-01T22:50:28.695Z,88.80
2022-11-01T22:52:24.041Z,88.80
2022-11-01T22:54:27.624Z,89.30
2022-11-01T22:56:19.390Z,89.10
2022-11-01T22:58:24.935Z,88.60
2022-11-01T23:00:29.888Z,88.80
2022-11-01T23:02:30.779Z,88.00
2022-11-01T23:04:21.693Z,88.90
2022-11-01T23:06:30.238Z,88.90
2022-11-01T23:08:23.860Z,88.70
2022-11-01T23:10:29.480Z,88.90
2022-11-01T23:12:24.084Z,88.30
2022-11-01T23:14:21.464Z,88.30
2022-11-01T23:16:21.578Z,89.00
2022-11-01T23:18:18.355Z,89.30
2022-11-01T23:20:09.968Z,88.90
2022-11-01T23:22:00.360Z,89.00
2022-11-01T23:23:51.075Z,89.30
2022-11-01T23:25:41.439Z,89.60
2022-11-01T23:27:33.186Z,89.90
2022-11-01T23:29:23.656Z,89.90
2022-11-01T23:31:14.396Z,89.90
2022-11-01T23:33:07.674Z,89.90
2022-11-01T23:35:03.097Z,89.90
2022-11-01T23:36:54.389Z,89.90
2022-11-01T23:38:47.429Z,89.90
2022-11-01T23:40:38.169Z,89.90
2022-11-01T23:42:28.449Z,89.60
2022-11-01T23:44:25.534Z,89.80
2022-11-01T23:46:16.164Z,89.90
2022-11-01T23:48:09.233Z,89.90
2022-11-01T23:50:01.933Z,89.90
2022-11-01T23:51:52.497Z,89.90
2022-11-01T23:53:44.177Z,89.70
2022-11-01T23:55:38.046Z,89.40
2022-11-01T23:57:28.307Z,89.70
2022-11-01T23:59:20.014Z,89.00
